Airfield :
LOGIN :

Register | Disclaimer

   EN    FR    IT 

 










Legend :    VFR   Marginal VFR   IFR   Intensive IFR   Very Intensive IFR
Visi :
Ceiling :
>= 8 km
>= 3000ft
5 to 8 km
1000 to 3000 ft
1500m to 5 km
500 to 1000 ft
800 to 1500m
200 to 500 ft
< 800m
< 200 ft
Symbols :   Thunderstorms  Fog  Heavy snow  Heavy precipitations  Wind > 20 kt
SIGMETs :     Misc.  Thunderstorms  Icing  Turbulence  Mountain Waves  Volcanic Ashes







- Airport Elevation : 157 ft
- IATA code : LIL
- Download approach charts


LFQQ - Lille Lesquin

CURRENT METAR :
  • 211330Z AUTO 23008KT 210V270 CAVOK 15/06 Q1028 NOSIG

EXPIRED METARs :
  • 211300Z AUTO 24010KT CAVOK 14/07 Q1028 NOSIG
  • 211230Z AUTO 23010KT CAVOK 14/06 Q1028 NOSIG
  • 211200Z AUTO 23011KT CAVOK 13/07 Q1027 NOSIG
  • 211130Z AUTO 22012KT CAVOK 12/06 Q1028 BECMG 16005KT

TAF TAF LFQQ
Valid from the 21 at 12:00 until the 22 at 18:00 UTC


211100Z 2112/2218 24010KT CAVOK
BECMG 2119/2121 3000 BR
BECMG 2121/2123 17003KT 0800 FG OVC003
TEMPO 2121/2207 0200 FG VV///
BECMG 2207/2209 2000 BR
BECMG 2211/2213 6000 NSW BKN016
ATIS : +33 3 20 16 19 54
No reported NOTAMs for that airfield.



MET'MAP, your aeronautical weather chart ! - Copyright ORBIFLY December 2007 - Disclaimer

ORBIFLY MET'MAP TEAM :

Programming & Development : Alexandra Zaïnal
Concept & Development : Baudouin d'Aumeries
Co-Development & Prog : Marc-Olivier Méhu
Technical & hardware support : Manuel Goepfert

Contact : metmap@orbifly.com




SOURCES & CREDITS :

   NOAA